Time;durP1;ratioP1;P1;durP2;ratioP2;P2;SDS_P1;SDS_P2;PMS_P1;PMS_P2;Temp;Humidity;BMP_temperature;BMP_pressure;BME280_temperature;BME280_humidity;BME280_pressure;Samples;Min_cycle;Max_cycle;Signal;HPM_P1;HPM_P2
2022/10/15 00:00:50;;;;;;;;;;;;;;;7.54;95.19;100659.36;1456415;89;20396;-83
2022/10/15 00:03:17;;;;;;;;;;;;;;;7.57;95.51;100656.48;1458370;89;20262;-83
2022/10/15 00:05:44;;;;;;;;;;;;;;;7.60;94.95;100662.81;1464481;89;20278;-83
2022/10/15 00:08:11;;;;;;;;;;;;;;;7.59;94.84;100657.17;1461225;89;20246;-82
2022/10/15 00:10:38;;;;;;;;;;;;;;;7.59;94.77;100651.07;1462400;89;20919;-81
2022/10/15 00:13:06;;;;;;;;;;;;;;;7.59;94.65;100663.76;1464811;89;20277;-83
2022/10/15 00:15:36;;;;;;;;;;;;;;;7.58;94.65;100659.45;1457807;89;20301;-82
2022/10/15 00:18:03;;;;;;;;;;;;;;;7.59;94.59;100649.27;1431280;91;20251;-83
2022/10/15 00:20:30;;;;;;;;;;;;;;;7.62;94.59;100651.69;1436882;89;20944;-83
2022/10/15 00:22:57;;;;;;;;;;;;;;;7.61;95.06;100651.31;1458981;89;20391;-83
2022/10/15 00:25:24;;;;;;;;;;;;;;;7.63;95.29;100644.13;1460214;89;20282;-82
2022/10/15 00:27:50;;;;;;;;;;;;;;;7.63;95.62;100650.72;1459160;89;20285;-82
2022/10/15 00:30:18;;;;;;;;;;;;;;;7.64;95.37;100648.42;1452144;89;20338;-82
2022/10/15 00:32:44;;;;;;;;;;;;;;;7.67;95.55;100646.86;1460827;89;20345;-83
2022/10/15 00:35:11;;;;;;;;;;;;;;;7.68;95.52;100651.19;1456305;89;20284;-82
2022/10/15 00:37:38;;;;;;;;;;;;;;;7.72;95.65;100652.26;1463152;89;20688;-82
2022/10/15 00:40:07;;;;;;;;;;;;;;;7.73;95.89;100655.23;1463703;89;20292;-83
2022/10/15 00:42:34;;;;;;;;;;;;;;;7.76;95.61;100656.30;1461369;89;20370;-82
2022/10/15 00:45:01;;;;;;;;;;;;;;;7.79;95.43;100652.11;1444735;89;20337;-82
2022/10/15 00:47:43;;;;;;;;;;;;;;;7.81;95.44;100656.78;1454151;89;20325;-82
2022/10/15 00:50:14;;;;;;;;;;;;;;;7.80;97.20;100655.12;1458765;89;20355;-83
2022/10/15 00:53:03;;;;;;;;;;;;;;;7.78;96.15;100663.61;1450134;89;20352;-81
2022/10/15 00:55:32;;;;;;;;;;;;;;;7.77;97.28;100656.66;1430352;90;20242;-82
2022/10/15 00:58:09;;;;;;;;;;;;;;;7.73;97.28;100657.39;1438483;90;20308;-81
2022/10/15 01:00:36;;;;;;;;;;;;;;;7.75;96.70;100653.33;1457463;89;20278;-81
2022/10/15 01:03:03;;;;;;;;;;;;;;;7.78;97.55;100651.27;1458662;89;20275;-83
2022/10/15 01:05:30;;;;;;;;;;;;;;;7.83;96.47;100641.20;1463407;89;20219;-82
2022/10/15 01:07:57;;;;;;;;;;;;;;;7.90;96.09;100638.90;1466323;89;20441;-82
2022/10/15 01:10:33;;;;;;;;;;;;;;;7.95;95.93;100630.14;1460305;89;20340;-82
2022/10/15 01:13:04;;;;;;;;;;;;;;;7.96;95.25;100629.16;1463206;89;20751;-82
2022/10/15 01:15:38;;;;;;;;;;;;;;;7.96;94.88;100638.88;1464600;89;20307;-81
2022/10/15 01:18:28;;;;;;;;;;;;;;;7.92;94.76;100635.66;1419233;92;20290;-81
2022/10/15 01:21:26;;;;;;;;;;;;;;;7.90;95.09;100633.63;1449215;89;20285;-81
2022/10/15 01:24:17;;;;;;;;;;;;;;;7.86;94.84;100630.41;1449646;90;20872;-80
2022/10/15 01:27:23;;;;;;;;;;;;;;;7.81;95.85;100633.06;1446482;90;20233;-85
2022/10/15 01:30:02;;;;;;;;;;;;;;;7.69;96.48;100636.22;1444919;89;20300;-82
2022/10/15 01:32:33;;;;;;;;;;;;;;;7.51;96.86;100642.94;1456574;90;20242;-82
2022/10/15 01:35:19;;;;;;;;;;;;;;;7.48;97.34;100645.37;1445950;90;20593;-83
2022/10/15 01:37:55;;;;;;;;;;;;;;;7.47;97.07;100639.72;1438068;90;20397;-83
2022/10/15 01:40:32;;;;;;;;;;;;;;;7.39;98.15;100636.86;1454277;90;20390;-82
2022/10/15 01:43:01;;;;;;;;;;;;;;;7.31;98.83;100642.75;1448067;90;20618;-83
2022/10/15 01:45:35;;;;;;;;;;;;;;;7.30;97.96;100642.86;1458060;90;20791;-84
2022/10/15 01:48:05;;;;;;;;;;;;;;;7.26;97.88;100644.91;1449505;90;20604;-82
2022/10/15 01:50:33;;;;;;;;;;;;;;;7.23;97.39;100643.34;1455995;90;20360;-82
2022/10/15 01:53:01;;;;;;;;;;;;;;;7.26;97.74;100641.44;1445668;90;20329;-83
2022/10/15 01:55:30;;;;;;;;;;;;;;;7.29;97.90;100646.46;1453904;90;20338;-82
2022/10/15 01:57:58;;;;;;;;;;;;;;;7.31;97.79;100641.89;1452847;90;20308;-82
2022/10/15 02:00:25;;;;;;;;;;;;;;;7.35;97.19;100640.70;1448633;90;20242;-82
2022/10/15 02:02:52;;;;;;;;;;;;;;;7.36;96.69;100645.00;1459459;90;20212;-82
2022/10/15 02:05:25;;;;;;;;;;;;;;;7.41;96.74;100641.53;1450009;90;20278;-81
2022/10/15 02:07:55;;;;;;;;;;;;;;;7.38;96.72;100643.09;1450089;89;20346;-82
2022/10/15 02:10:46;;;;;;;;;;;;;;;7.29;97.36;100646.46;1458032;90;20448;-81
2022/10/15 02:13:21;;;;;;;;;;;;;;;7.22;97.82;100649.58;1440560;90;20420;-82
2022/10/15 02:15:55;;;;;;;;;;;;;;;7.22;97.43;100653.53;1454744;90;20316;-81
2022/10/15 02:18:52;;;;;;;;;;;;;;;7.26;97.62;100654.60;1447963;90;20315;-81
2022/10/15 02:21:22;;;;;;;;;;;;;;;7.29;97.31;100660.45;1447553;90;20371;-82
2022/10/15 02:24:10;;;;;;;;;;;;;;;7.34;97.37;100654.84;1452798;90;20979;-81
2022/10/15 02:26:39;;;;;;;;;;;;;;;7.37;96.79;100654.11;1446341;90;20310;-81
2022/10/15 02:29:08;;;;;;;;;;;;;;;7.44;96.75;100654.45;1449375;90;20300;-82
2022/10/15 02:31:35;;;;;;;;;;;;;;;7.50;96.37;100654.45;1448798;90;20263;-82
2022/10/15 02:34:06;;;;;;;;;;;;;;;7.53;96.03;100655.52;1446907;90;20374;-82
2022/10/15 02:36:33;;;;;;;;;;;;;;;7.57;95.89;100651.21;1442132;90;20353;-82
2022/10/15 02:39:02;;;;;;;;;;;;;;;7.61;96.01;100646.05;1447766;90;20227;-81
2022/10/15 02:41:29;;;;;;;;;;;;;;;7.66;95.80;100645.69;1453749;90;20292;-82
2022/10/15 02:43:56;;;;;;;;;;;;;;;7.68;95.66;100645.92;1455091;90;20249;-81
2022/10/15 02:46:23;;;;;;;;;;;;;;;7.72;95.49;100646.98;1446094;90;20292;-80
2022/10/15 02:48:50;;;;;;;;;;;;;;;7.77;95.78;100644.80;1446573;90;20293;-80
2022/10/15 02:51:16;;;;;;;;;;;;;;;7.83;95.73;100648.28;1453529;90;20323;-80
2022/10/15 02:53:43;;;;;;;;;;;;;;;7.86;95.61;100642.27;1445149;90;20300;-81
2022/10/15 02:56:10;;;;;;;;;;;;;;;7.86;95.23;100644.08;1447358;90;20301;-81
2022/10/15 02:58:37;;;;;;;;;;;;;;;7.81;95.70;100642.28;1444398;90;20747;-81
2022/10/15 03:01:04;;;;;;;;;;;;;;;7.78;95.17;100641.22;1445814;90;20316;-80
2022/10/15 03:03:31;;;;;;;;;;;;;;;7.76;95.56;100642.65;1449981;90;20400;-82
2022/10/15 03:05:58;;;;;;;;;;;;;;;7.79;95.39;100637.61;1454307;90;20822;-81
2022/10/15 03:08:25;;;;;;;;;;;;;;;7.78;95.34;100643.85;1448681;90;20397;-83
2022/10/15 03:10:52;;;;;;;;;;;;;;;7.73;95.25;100644.70;1448086;90;20369;-82
2022/10/15 03:13:18;;;;;;;;;;;;;;;7.68;95.37;100643.28;1460382;89;20374;-82
2022/10/15 03:15:45;;;;;;;;;;;;;;;7.65;95.44;100644.85;1467034;89;20457;-80
2022/10/15 03:18:12;;;;;;;;;;;;;;;7.65;94.96;100644.85;1458332;89;20412;-81
2022/10/15 03:20:39;;;;;;;;;;;;;;;7.65;94.91;100650.58;1459418;89;20233;-81
2022/10/15 03:23:07;;;;;;;;;;;;;;;7.64;94.91;100643.64;1463463;89;20326;-82
2022/10/15 03:25:33;;;;;;;;;;;;;;;7.67;94.82;100649.98;1465854;89;20389;-80
2022/10/15 03:28:00;;;;;;;;;;;;;;;7.69;94.91;100652.85;1461132;89;20761;-82
2022/10/15 03:30:27;;;;;;;;;;;;;;;7.73;95.39;100653.92;1466871;89;20300;-81
2022/10/15 03:32:54;;;;;;;;;;;;;;;7.80;95.46;100659.06;1463322;89;20337;-82
2022/10/15 03:35:21;;;;;;;;;;;;;;;7.86;96.57;100651.98;1451881;89;20241;-80
2022/10/15 03:37:48;;;;;;;;;;;;;;;7.92;96.84;100655.43;1447559;89;20418;-80
2022/10/15 03:40:15;;;;;;;;;;;;;;;8.01;96.84;100652.03;1459906;89;20326;-79
2022/10/15 03:42:41;;;;;;;;;;;;;;;8.11;96.96;100650.34;1452687;89;20382;-81
2022/10/15 03:45:09;;;;;;;;;;;;;;;8.21;96.90;100649.08;1451165;89;20397;-81
2022/10/15 03:47:36;;;;;;;;;;;;;;;8.33;97.16;100643.27;1459327;89;20824;-79
2022/10/15 03:50:03;;;;;;;;;;;;;;;8.44;98.26;100649.84;1456108;89;20301;-80
2022/10/15 03:52:30;;;;;;;;;;;;;;;8.54;97.72;100649.89;1444336;89;21158;-80
2022/10/15 03:54:57;;;;;;;;;;;;;;;8.63;97.67;100650.91;1454271;89;20519;-79
2022/10/15 03:57:24;;;;;;;;;;;;;;;8.64;100.00;100661.84;1426913;92;20290;-79
2022/10/15 03:59:50;;;;;;;;;;;;;;;8.61;100.00;100661.62;1441070;91;20399;-79
2022/10/15 04:02:17;;;;;;;;;;;;;;;8.58;100.00;100667.98;1460039;89;20352;-80
2022/10/15 04:04:44;;;;;;;;;;;;;;;8.55;99.35;100664.77;1454157;89;20238;-79
2022/10/15 04:07:11;;;;;;;;;;;;;;;8.51;99.30;100668.13;1458026;89;20315;-80
2022/10/15 04:09:38;;;;;;;;;;;;;;;8.43;98.65;100669.28;1453601;89;20220;-80
2022/10/15 04:12:05;;;;;;;;;;;;;;;8.37;97.72;100665.77;1446408;90;20792;-82
2022/10/15 04:14:32;;;;;;;;;;;;;;;8.36;97.28;100667.58;1448222;89;20288;-80
2022/10/15 04:16:58;;;;;;;;;;;;;;;8.35;97.10;100665.09;1463085;89;20391;-80
2022/10/15 04:19:25;;;;;;;;;;;;;;;8.26;96.68;100669.81;1454001;89;20426;-79
2022/10/15 04:21:52;;;;;;;;;;;;;;;8.21;96.07;100664.07;1454114;89;20434;-79
2022/10/15 04:24:19;;;;;;;;;;;;;;;8.20;95.93;100663.70;1452039;89;20277;-81
2022/10/15 04:26:46;;;;;;;;;;;;;;;8.17;95.62;100666.59;1460472;89;20278;-79
2022/10/15 04:29:13;;;;;;;;;;;;;;;8.11;96.24;100671.88;1458068;89;20341;-82
2022/10/15 04:31:41;;;;;;;;;;;;;;;8.00;96.50;100676.73;1463338;89;20238;-80
2022/10/15 04:34:08;;;;;;;;;;;;;;;7.96;96.21;100677.09;1461016;89;20784;-80
2022/10/15 04:36:35;;;;;;;;;;;;;;;7.94;96.97;100669.33;1460476;89;20288;-81
2022/10/15 04:39:03;;;;;;;;;;;;;;;7.96;97.42;100679.73;1459119;89;20285;-80
2022/10/15 04:41:30;;;;;;;;;;;;;;;7.90;99.25;100679.26;1456919;89;20300;-82
2022/10/15 04:43:57;;;;;;;;;;;;;;;7.88;98.54;100681.20;1461879;89;20363;-82
2022/10/15 04:46:24;;;;;;;;;;;;;;;7.93;98.17;100676.86;1461840;89;20380;-81
2022/10/15 04:48:56;;;;;;;;;;;;;;;7.98;97.97;100675.18;1462905;89;20285;-82
2022/10/15 04:51:21;;;;;;;;;;;;;;;8.02;97.82;100673.95;1459135;89;20418;-80
2022/10/15 04:53:48;;;;;;;;;;;;;;;8.07;97.38;100669.98;1461651;89;20381;-82
2022/10/15 04:56:18;;;;;;;;;;;;;;;8.08;96.84;100666.38;1459489;89;20292;-83
2022/10/15 04:58:46;;;;;;;;;;;;;;;8.09;96.81;100669.88;1466702;89;20285;-81
2022/10/15 05:01:15;;;;;;;;;;;;;;;8.09;96.94;100661.96;1451994;89;20361;-82
2022/10/15 05:03:43;;;;;;;;;;;;;;;8.10;96.74;100667.58;1465350;89;20256;-82
2022/10/15 05:06:17;;;;;;;;;;;;;;;8.10;96.48;100672.37;1464158;89;20307;-83
2022/10/15 05:08:45;;;;;;;;;;;;;;;8.13;96.69;100671.28;1453754;89;20452;-82
2022/10/15 05:11:24;;;;;;;;;;;;;;;8.16;96.81;100673.66;1457798;89;20330;-83
2022/10/15 05:13:51;;;;;;;;;;;;;;;8.15;96.57;100668.05;1456866;89;20418;-83
2022/10/15 05:16:20;;;;;;;;;;;;;;;8.16;96.37;100668.88;1460524;89;20793;-81
2022/10/15 05:18:50;;;;;;;;;;;;;;;8.14;96.65;100675.13;1454200;89;20463;-80
2022/10/15 05:21:18;;;;;;;;;;;;;;;8.14;96.76;100669.85;1456226;89;20300;-84
2022/10/15 05:23:46;;;;;;;;;;;;;;;8.12;97.02;100671.77;1453748;89;20359;-85
2022/10/15 05:26:16;;;;;;;;;;;;;;;8.09;96.31;100677.30;1452584;89;20238;-85
2022/10/15 05:28:43;;;;;;;;;;;;;;;8.09;96.14;100670.70;1460757;89;20318;-85
2022/10/15 05:31:12;;;;;;;;;;;;;;;8.09;95.87;100672.02;1456255;89;20365;-87
2022/10/15 05:33:39;;;;;;;;;;;;;;;8.12;96.27;100673.09;1457928;89;20267;-85
2022/10/15 05:36:17;;;;;;;;;;;;;;;8.18;96.79;100673.55;1458064;89;20493;-85
2022/10/15 05:38:46;;;;;;;;;;;;;;;8.25;97.41;100668.95;1458425;89;21089;-84
2022/10/15 05:41:13;;;;;;;;;;;;;;;8.33;97.74;100665.20;1422996;89;20957;-86
2022/10/15 05:43:40;;;;;;;;;;;;;;;8.44;97.76;100670.94;1457907;89;20363;-84
2022/10/15 05:46:07;;;;;;;;;;;;;;;8.57;98.26;100677.33;1453611;89;20288;-86
2022/10/15 05:48:39;;;;;;;;;;;;;;;8.70;98.30;100673.20;1451829;89;20415;-87
2022/10/15 05:51:09;;;;;;;;;;;;;;;8.84;98.43;100678.14;1454992;89;20393;-86
2022/10/15 05:53:42;;;;;;;;;;;;;;;8.97;98.81;100674.80;1544311;89;20260;-88
2022/10/15 05:56:09;;;;;;;;;;;;;;;9.09;98.55;100677.35;1388691;89;20312;-89
2022/10/15 05:58:36;;;;;;;;;;;;;;;9.18;98.25;100685.83;1539891;89;20355;-88
2022/10/15 06:01:05;;;;;;;;;;;;;;;9.29;98.22;100686.20;1437630;89;20394;-87
2022/10/15 06:03:32;;;;;;;;;;;;;;;9.39;97.81;100682.63;1457210;89;20967;-84
2022/10/15 06:05:59;;;;;;;;;;;;;;;9.49;97.62;100682.20;1464386;89;20404;-86
2022/10/15 06:08:27;;;;;;;;;;;;;;;9.57;97.23;100683.31;1456403;89;20389;-87
2022/10/15 06:10:55;;;;;;;;;;;;;;;9.63;97.16;100688.89;1456007;89;20415;-89
2022/10/15 06:13:22;;;;;;;;;;;;;;;9.75;97.08;100695.38;1454480;89;20381;-87
2022/10/15 06:15:49;;;;;;;;;;;;;;;9.88;97.06;100699.45;1457382;89;20396;-86
2022/10/15 06:18:16;;;;;;;;;;;;;;;10.04;97.02;100700.72;1458384;89;20396;-88
2022/10/15 06:20:43;;;;;;;;;;;;;;;10.17;96.92;100698.66;1456941;89;20868;-89
2022/10/15 06:23:11;;;;;;;;;;;;;;;10.30;96.53;100701.91;1456354;89;20259;-87
2022/10/15 06:25:38;;;;;;;;;;;;;;;10.44;96.46;100713.03;1463988;89;20288;-89
2022/10/15 06:28:06;;;;;;;;;;;;;;;10.55;96.19;100715.53;1454912;89;20333;-89
2022/10/15 06:30:33;;;;;;;;;;;;;;;10.70;96.30;100706.17;1452418;89;20500;-91
2022/10/15 06:32:59;;;;;;;;;;;;;;;10.87;96.27;100711.23;1461737;89;20282;-90
2022/10/15 06:35:32;;;;;;;;;;;;;;;11.03;96.17;100718.60;1453027;89;20230;-90
2022/10/15 06:38:04;;;;;;;;;;;;;;;11.20;96.06;100724.97;1457345;89;20333;-90
2022/10/15 06:40:31;;;;;;;;;;;;;;;11.36;95.33;100729.64;1460186;89;20311;-89
2022/10/15 06:43:06;;;;;;;;;;;;;;;11.43;94.46;100721.47;1462739;89;20436;-88
2022/10/15 06:45:39;;;;;;;;;;;;;;;11.53;94.49;100730.20;1453140;89;20237;-86
2022/10/15 06:48:06;;;;;;;;;;;;;;;11.63;93.96;100733.66;1459766;89;20861;-90
2022/10/15 06:50:35;;;;;;;;;;;;;;;11.72;93.82;100734.09;1457532;89;20467;-90
2022/10/15 06:53:02;;;;;;;;;;;;;;;11.80;93.32;100736.51;1460666;89;20932;-89
2022/10/15 06:55:29;;;;;;;;;;;;;;;11.89;93.12;100734.32;1458208;89;20400;-90
2022/10/15 06:57:56;;;;;;;;;;;;;;;11.96;91.75;100740.69;1451536;89;20414;-88
2022/10/15 07:00:24;;;;;;;;;;;;;;;11.95;91.54;100741.67;1456971;89;20391;-91
2022/10/15 07:02:51;;;;;;;;;;;;;;;11.93;91.35;100750.27;1455310;89;20281;-89
2022/10/15 07:05:18;;;;;;;;;;;;;;;11.97;91.72;100749.00;1458720;89;20839;-89
2022/10/15 07:07:52;;;;;;;;;;;;;;;12.06;91.47;100753.91;1461239;89;21129;-90
2022/10/15 07:10:20;;;;;;;;;;;;;;;12.11;91.32;100759.11;1456216;89;20296;-90
2022/10/15 07:12:47;;;;;;;;;;;;;;;12.13;91.03;100754.47;1461935;89;20814;-90
2022/10/15 07:15:14;;;;;;;;;;;;;;;12.19;91.23;100754.36;1454966;89;20215;-90
2022/10/15 07:17:51;;;;;;;;;;;;;;;12.27;90.98;100756.27;1468857;89;20871;-91
2022/10/15 07:20:19;;;;;;;;;;;;;;;12.30;90.64;100759.95;1460942;89;20304;-90
2022/10/15 07:22:45;;;;;;;;;;;;;;;12.36;90.23;100762.83;1456313;89;20289;-89
2022/10/15 07:25:12;;;;;;;;;;;;;;;12.42;90.11;100766.70;1455827;89;20312;-89
2022/10/15 07:27:39;;;;;;;;;;;;;;;12.41;89.59;100760.56;1458186;89;20208;-89
2022/10/15 07:30:07;;;;;;;;;;;;;;;12.46;89.48;100764.56;1453717;89;20304;-92
2022/10/15 07:32:34;;;;;;;;;;;;;;;12.49;89.60;100763.80;1452501;89;20288;-91
2022/10/15 16:02:53;;;;;;;51.03;27.07;;;;;;;15.76;72.68;100698.00;1516155;85;28692;-87
2022/10/15 16:05:22;;;;;;;42.57;26.97;;;;;;;15.60;72.30;100696.73;1493187;87;21564;-89
2022/10/15 16:07:48;;;;;;;32.83;22.20;;;;;;;15.50;71.99;100688.09;1490161;87;21543;-89
2022/10/15 16:10:14;;;;;;;34.77;21.67;;;;;;;15.35;71.94;100688.81;1491447;87;21668;-89
2022/10/15 16:15:42;;;;;;;38.37;26.67;;;;;;;15.07;72.66;100699.56;1374052;88;21554;-90
2022/10/15 16:18:09;;;;;;;35.20;24.17;;;;;;;14.88;72.62;100697.61;1438778;90;21517;-88
2022/10/15 16:20:38;;;;;;;28.57;20.00;;;;;;;14.75;72.95;100701.28;1431342;90;21406;-89
2022/10/15 16:23:03;;;;;;;23.37;16.50;;;;;;;14.64;73.57;100706.95;1453446;88;21457;-90
2022/10/15 16:25:30;;;;;;;29.50;16.83;;;;;;;14.53;74.01;100712.13;1423269;91;21616;-88
2022/10/15 16:28:00;;;;;;;19.67;15.50;;;;;;;14.47;74.28;100712.73;1427427;91;21634;-89
2022/10/15 16:30:27;;;;;;;26.57;17.92;;;;;;;14.40;74.64;100718.41;1425290;91;21731;-89
2022/10/15 16:32:52;;;;;;;28.13;17.93;;;;;;;14.33;74.61;100720.91;1441900;91;21311;-90
2022/10/15 16:35:18;;;;;;;29.47;20.17;;;;;;;14.27;74.62;100724.23;1440687;90;21481;-90
2022/10/15 16:37:45;;;;;;;39.70;25.20;;;;;;;14.19;74.69;100722.89;1444692;89;22232;-90
2022/10/15 16:40:11;;;;;;;43.70;26.17;;;;;;;14.11;75.01;100723.69;1417560;90;21533;-89
2022/10/15 16:42:37;;;;;;;50.83;25.27;;;;;;;14.02;75.76;100733.16;1431041;90;21384;-84
2022/10/15 16:45:04;;;;;;;41.03;22.50;;;;;;;13.94;76.36;100734.80;1431076;90;21577;-83
2022/10/15 16:47:30;;;;;;;42.20;25.13;;;;;;;13.89;76.66;100730.45;1440295;90;21687;-88
2022/10/15 16:49:56;;;;;;;33.40;21.50;;;;;;;13.86;76.76;100728.11;1435499;90;21437;-86
2022/10/15 16:52:22;;;;;;;36.73;21.83;;;;;;;13.83;76.63;100732.42;1436046;90;21458;-88
2022/10/15 16:54:49;;;;;;;33.97;21.17;;;;;;;13.78;76.98;100740.05;1438652;90;21473;-88
2022/10/15 16:57:15;;;;;;;41.20;20.23;;;;;;;13.73;77.09;100745.05;1439115;90;21495;-88
2022/10/15 16:59:41;;;;;;;37.13;22.27;;;;;;;13.67;77.10;100745.19;1443259;90;21510;-88
2022/10/15 17:02:09;;;;;;;39.27;23.10;;;;;;;13.61;77.37;100741.84;1439329;90;21503;-88
2022/10/15 17:04:35;;;;;;;38.90;20.83;;;;;;;13.56;78.06;100736.66;1434635;90;21998;-88
2022/10/15 17:07:01;;;;;;;33.23;20.47;;;;;;;13.52;78.26;100744.96;1442371;90;21546;-88
2022/10/15 17:09:28;;;;;;;40.07;21.50;;;;;;;13.51;78.26;100744.60;1420826;90;21621;-89
2022/10/15 17:11:54;;;;;;;40.20;25.97;;;;;;;13.51;78.38;100747.77;1437264;90;22515;-88
2022/10/15 17:14:20;;;;;;;45.27;29.13;;;;;;;13.49;78.24;100744.42;1446845;90;21532;-89
2022/10/15 17:16:50;;;;;;;65.87;35.00;;;;;;;13.49;78.25;100748.41;1442285;90;21569;-88
2022/10/15 17:19:24;;;;;;;66.22;36.38;;;;;;;13.47;78.08;100749.08;1432067;90;21451;-88
2022/10/15 17:21:54;;;;;;;78.50;37.77;;;;;;;13.43;78.04;100754.36;1442323;90;21421;-88
2022/10/15 17:24:20;;;;;;;66.03;32.60;;;;;;;13.40;78.56;100759.50;1443905;90;22682;-88
2022/10/15 17:26:48;;;;;;;62.53;31.57;;;;;;;13.40;78.86;100762.16;1422205;90;21631;-87
2022/10/15 17:29:21;;;;;;;55.53;30.87;;;;;;;13.38;79.00;100761.50;1432466;90;22563;-89
2022/10/15 17:31:48;;;;;;;79.37;32.97;;;;;;;13.40;79.12;100764.81;1434649;90;21725;-88
2022/10/15 17:34:15;;;;;;;88.10;44.23;;;;;;;13.40;79.03;100767.97;1444909;89;21415;-88
2022/10/15 17:36:46;;;;;;;107.90;52.30;;;;;;;13.39;78.87;100773.80;1456144;89;21509;-88
2022/10/15 17:39:16;;;;;;;;;;;;;;;13.36;78.81;100768.79;1459028;89;21390;-89
2022/10/15 17:41:43;;;;;;;120.25;55.75;;;;;;;13.33;79.15;100779.73;1457767;89;20454;-88
2022/10/15 17:44:11;;;;;;;99.57;49.27;;;;;;;13.26;78.65;100771.56;1460288;89;21500;-87
2022/10/15 17:46:38;;;;;;;89.90;43.03;;;;;;;13.22;78.93;100774.66;1447688;89;21442;-86
2022/10/15 17:49:05;;;;;;;64.60;32.47;;;;;;;13.19;79.33;100774.97;1452411;89;22424;-88
2022/10/15 17:51:33;;;;;;;55.87;31.50;;;;;;;13.16;79.77;100780.59;1458635;89;22528;-88
2022/10/15 17:54:00;;;;;;;71.27;34.47;;;;;;;13.16;79.92;100784.08;1459547;89;21434;-88
2022/10/15 17:56:30;;;;;;;64.97;34.20;;;;;;;13.15;79.84;100783.75;1454075;89;21478;-88
2022/10/15 17:58:58;;;;;;;71.45;36.68;;;;;;;13.14;79.83;100783.89;1454658;89;22431;-87
2022/10/15 18:01:31;;;;;;;64.63;33.37;;;;;;;13.13;79.70;100795.02;1455176;89;22365;-89
2022/10/15 18:03:58;;;;;;;66.10;36.97;;;;;;;13.09;79.79;100796.34;1428354;89;21444;-88
2022/10/15 18:06:26;;;;;;;113.70;52.57;;;;;;;13.07;79.72;100793.81;1423288;91;21524;-90
2022/10/15 18:08:54;;;;;;;139.80;63.07;;;;;;;13.06;80.04;100792.16;1414983;91;22546;-88
2022/10/15 18:11:28;;;;;;;112.57;53.07;;;;;;;13.08;80.36;100797.30;1420725;92;21651;-88
2022/10/15 18:13:54;;;;;;;87.77;45.83;;;;;;;13.08;80.45;100790.16;1421424;91;21429;-89
2022/10/15 18:16:21;;;;;;;58.80;34.20;;;;;;;13.09;80.48;100790.52;1426064;92;21646;-87
2022/10/15 18:18:47;;;;;;;47.37;30.30;;;;;;;13.09;80.38;100795.84;1415155;92;21562;-88
2022/10/15 18:21:17;;;;;;;41.90;28.83;;;;;;;13.07;80.20;100785.84;1418698;91;21683;-88
2022/10/15 18:23:44;;;;;;;38.00;26.40;;;;;;;13.07;80.21;100790.34;1423727;91;21643;-87
2022/10/15 18:26:21;;;;;;;39.37;25.63;;;;;;;13.05;80.23;100786.98;1420782;91;21636;-87
2022/10/15 18:28:53;;;;;;;38.73;24.77;;;;;;;13.02;80.32;100789.95;1415361;91;21651;-86
2022/10/15 18:31:20;;;;;;;35.97;24.10;;;;;;;13.00;80.69;100782.63;1419583;92;21654;-89
2022/10/15 18:33:53;;;;;;;34.97;22.83;;;;;;;13.00;81.05;100787.94;1420762;92;21467;-87
2022/10/15 18:36:29;;;;;;;35.83;22.47;;;;;;;13.02;81.15;100787.30;1420793;92;21548;-88
2022/10/15 18:38:56;;;;;;;44.87;24.80;;;;;;;13.04;81.11;100783.50;1417465;92;21488;-89
2022/10/15 18:41:31;;;;;;;33.73;23.47;;;;;;;13.08;80.87;100786.67;1417202;91;21459;-88
2022/10/15 18:44:04;;;;;;;47.97;25.80;;;;;;;13.08;80.73;100787.50;1414741;92;21717;-87
2022/10/15 18:46:33;;;;;;;42.53;27.20;;;;;;;13.06;80.50;100790.84;1422131;91;22352;-88
2022/10/15 18:49:00;;;;;;;41.27;27.83;;;;;;;13.02;80.53;100793.44;1419670;91;21511;-90
2022/10/15 18:51:27;;;;;;;45.47;26.87;;;;;;;12.98;80.42;100801.39;1419360;91;21562;-87
2022/10/15 18:53:54;;;;;;;48.17;27.73;;;;;;;12.93;80.80;100803.67;1417670;92;22353;-87
2022/10/15 18:56:21;;;;;;;44.97;26.67;;;;;;;12.91;80.95;100806.97;1418863;91;21584;-89
2022/10/15 18:58:47;;;;;;;44.37;23.77;;;;;;;12.91;81.32;100806.97;1419047;92;21458;-89
2022/10/15 19:01:42;;;;;;;33.83;22.33;;;;;;;12.91;81.38;100810.95;1425139;90;21489;-87
2022/10/15 19:04:14;;;;;;;41.80;23.90;;;;;;;12.91;81.23;100809.63;1420061;92;21518;-89
2022/10/15 19:06:43;;;;;;;41.33;25.53;;;;;;;12.87;80.96;100810.93;1417579;91;21547;-90
2022/10/15 19:09:14;;;;;;;36.23;24.43;;;;;;;12.82;80.95;100818.52;1419622;91;21568;-89
2022/10/15 19:11:42;;;;;;;44.60;25.17;;;;;;;12.78;81.05;100821.15;1416267;92;21554;-88
2022/10/15 19:14:08;;;;;;;40.87;24.53;;;;;;;12.73;81.30;100820.27;1418404;92;21585;-89
2022/10/15 19:16:36;;;;;;;34.67;24.50;;;;;;;12.71;81.57;100822.73;1422670;91;21467;-89
2022/10/15 19:19:04;;;;;;;35.60;24.73;;;;;;;12.69;81.83;100826.02;1414866;91;21516;-89
2022/10/15 19:21:31;;;;;;;37.33;24.47;;;;;;;12.66;81.91;100821.88;1420571;91;22462;-88
2022/10/15 19:23:58;;;;;;;41.43;26.73;;;;;;;12.64;81.90;100822.02;1420395;92;21474;-89
2022/10/15 19:26:24;;;;;;;40.03;24.63;;;;;;;12.63;81.68;100822.17;1420557;91;22612;-89
2022/10/15 19:28:52;;;;;;;36.63;26.40;;;;;;;12.60;81.46;100819.33;1417699;91;21569;-88
2022/10/15 19:31:26;;;;;;;36.87;23.17;;;;;;;12.56;81.46;100827.23;1424859;90;21518;-90
2022/10/15 19:33:54;;;;;;;35.30;22.77;;;;;;;12.51;81.40;100817.55;1418215;90;21592;-90
2022/10/15 19:36:22;;;;;;;40.00;21.27;;;;;;;12.47;81.77;100822.00;1428284;90;22500;-85
2022/10/15 19:38:49;;;;;;;27.77;18.40;;;;;;;12.44;82.02;100819.66;1424380;90;21429;-89
2022/10/15 19:41:18;;;;;;;27.73;17.57;;;;;;;12.42;82.23;100822.44;1421908;89;22359;-88
2022/10/15 19:43:44;;;;;;;26.13;16.70;;;;;;;12.39;82.54;100820.92;1434149;91;22286;-89
2022/10/15 19:46:10;;;;;;;34.67;19.83;;;;;;;12.39;82.56;100818.77;1432039;90;21459;-88
2022/10/15 19:48:37;;;;;;;26.03;19.03;;;;;;;12.35;84.00;100824.04;1428155;91;23493;-89
2022/10/15 19:51:05;;;;;;;29.43;20.40;;;;;;;12.31;83.19;100820.83;1432783;89;21503;-91
2022/10/15 19:53:32;;;;;;;33.83;20.63;;;;;;;12.28;83.02;100826.94;1424990;89;22485;-90
2022/10/15 19:56:03;;;;;;;37.33;21.60;;;;;;;12.26;83.53;100827.59;1435023;89;21494;-90
2022/10/15 19:58:30;;;;;;;36.70;24.52;;;;;;;12.20;83.65;100835.66;1432799;90;21464;-90
2022/10/15 20:00:56;;;;;;;47.07;30.17;;;;;;;12.15;83.84;100837.41;1433061;91;22343;-87
2022/10/15 20:03:26;;;;;;;49.47;28.77;;;;;;;12.13;83.86;100849.16;1435436;90;21434;-90
2022/10/15 20:05:52;;;;;;;38.20;24.80;;;;;;;12.09;84.09;100856.58;1426303;90;21415;-86
2022/10/15 20:08:18;;;;;;;38.47;25.10;;;;;;;12.07;84.12;100857.21;1423997;92;21481;-90
2022/10/15 20:10:50;;;;;;;38.77;24.37;;;;;;;12.05;84.08;100857.01;1409447;92;22201;-89
2022/10/15 20:13:18;;;;;;;35.73;23.50;;;;;;;12.02;84.06;100862.11;1437805;90;21495;-88
2022/10/15 20:15:47;;;;;;;43.47;22.83;;;;;;;11.96;84.24;100861.38;1441051;90;21540;-89
2022/10/15 20:18:14;;;;;;;35.77;22.47;;;;;;;11.90;84.49;100861.46;1439680;90;21451;-89
2022/10/15 20:20:44;;;;;;;32.57;22.63;;;;;;;11.87;84.58;100865.73;1438409;90;21613;-89
2022/10/15 20:23:13;;;;;;;36.17;22.60;;;;;;;11.85;84.85;100866.83;1430517;90;21399;-89
2022/10/15 20:25:41;;;;;;;48.17;26.60;;;;;;;11.84;84.91;100871.80;1441073;90;22353;-89
2022/10/15 20:28:11;;;;;;;56.83;33.87;;;;;;;11.81;85.12;100869.44;1434431;90;21593;-90
2022/10/15 20:30:40;;;;;;;40.93;28.73;;;;;;;11.79;85.42;100868.73;1434861;90;21510;-88
2022/10/15 20:33:07;;;;;;;34.63;23.77;;;;;;;11.74;85.07;100871.84;1443243;90;21550;-90
2022/10/15 20:35:36;;;;;;;33.13;22.10;;;;;;;11.68;85.32;100878.55;1409680;91;21525;-89
2022/10/15 20:38:03;;;;;;;32.73;21.87;;;;;;;11.64;85.36;100878.97;1419822;92;22361;-88
2022/10/15 20:40:30;;;;;;;32.87;21.33;;;;;;;11.60;85.53;100874.45;1434369;90;21459;-89
2022/10/15 20:42:56;;;;;;;32.50;21.37;;;;;;;11.56;85.68;100883.66;1443931;90;21594;-89
2022/10/15 20:45:24;;;;;;;36.60;22.40;;;;;;;11.52;86.07;100881.78;1424299;90;22501;-89